sensor_id;sensor_type;location;lat;lon;timestamp;P1;durP1;ratioP1;P2;durP2;ratioP2
19032;SDS011;9649;51.042;13.804;2023-10-31T00:01:58;6.28;;;4.10;;
19032;SDS011;9649;51.042;13.804;2023-10-31T00:07:18;6.90;;;4.45;;
19032;SDS011;9649;51.042;13.804;2023-10-31T00:12:49;8.68;;;4.20;;
19032;SDS011;9649;51.042;13.804;2023-10-31T00:18:18;9.50;;;4.50;;
19032;SDS011;9649;51.042;13.804;2023-10-31T00:23:45;9.18;;;4.30;;
19032;SDS011;9649;51.042;13.804;2023-10-31T00:29:21;9.18;;;4.10;;
19032;SDS011;9649;51.042;13.804;2023-10-31T00:34:52;7.90;;;4.85;;
19032;SDS011;9649;51.042;13.804;2023-10-31T00:52:44;11.02;;;5.43;;
19032;SDS011;9649;51.042;13.804;2023-10-31T01:18:05;11.60;;;6.20;;
19032;SDS011;9649;51.042;13.804;2023-10-31T01:23:08;13.85;;;5.78;;
19032;SDS011;9649;51.042;13.804;2023-10-31T01:28:11;12.23;;;6.35;;
19032;SDS011;9649;51.042;13.804;2023-10-31T01:33:15;10.65;;;6.30;;
19032;SDS011;9649;51.042;13.804;2023-10-31T01:38:18;8.77;;;6.35;;
19032;SDS011;9649;51.042;13.804;2023-10-31T01:43:31;11.27;;;6.15;;
19032;SDS011;9649;51.042;13.804;2023-10-31T01:48:35;13.20;;;7.57;;
19032;SDS011;9649;51.042;13.804;2023-10-31T01:53:38;15.43;;;8.20;;
19032;SDS011;9649;51.042;13.804;2023-10-31T01:58:42;13.43;;;7.90;;
19032;SDS011;9649;51.042;13.804;2023-10-31T02:03:46;13.85;;;8.02;;
19032;SDS011;9649;51.042;13.804;2023-10-31T02:08:50;13.88;;;7.25;;
19032;SDS011;9649;51.042;13.804;2023-10-31T02:13:53;13.35;;;7.32;;
19032;SDS011;9649;51.042;13.804;2023-10-31T02:18:57;14.32;;;7.93;;
19032;SDS011;9649;51.042;13.804;2023-10-31T02:24:01;17.80;;;8.73;;
19032;SDS011;9649;51.042;13.804;2023-10-31T02:29:05;10.68;;;8.18;;
19032;SDS011;9649;51.042;13.804;2023-10-31T02:34:08;13.02;;;8.40;;
19032;SDS011;9649;51.042;13.804;2023-10-31T02:39:12;11.23;;;8.75;;
19032;SDS011;9649;51.042;13.804;2023-10-31T02:44:15;14.75;;;9.75;;
19032;SDS011;9649;51.042;13.804;2023-10-31T02:49:18;18.13;;;10.45;;
19032;SDS011;9649;51.042;13.804;2023-10-31T02:54:23;13.68;;;8.85;;
19032;SDS011;9649;51.042;13.804;2023-10-31T02:59:25;14.00;;;9.07;;
19032;SDS011;9649;51.042;13.804;2023-10-31T03:04:28;16.70;;;10.20;;
19032;SDS011;9649;51.042;13.804;2023-10-31T03:09:32;18.70;;;10.18;;
19032;SDS011;9649;51.042;13.804;2023-10-31T03:14:35;15.32;;;11.10;;
19032;SDS011;9649;51.042;13.804;2023-10-31T03:19:38;13.75;;;10.43;;
19032;SDS011;9649;51.042;13.804;2023-10-31T03:24:43;21.50;;;13.18;;
19032;SDS011;9649;51.042;13.804;2023-10-31T03:29:46;17.73;;;13.40;;
19032;SDS011;9649;51.042;13.804;2023-10-31T03:34:48;22.58;;;14.43;;
19032;SDS011;9649;51.042;13.804;2023-10-31T03:39:53;20.85;;;15.40;;
19032;SDS011;9649;51.042;13.804;2023-10-31T03:44:55;22.30;;;15.60;;
19032;SDS011;9649;51.042;13.804;2023-10-31T03:49:58;21.70;;;14.25;;
19032;SDS011;9649;51.042;13.804;2023-10-31T03:55:03;23.27;;;15.27;;
19032;SDS011;9649;51.042;13.804;2023-10-31T04:00:07;16.83;;;11.23;;
19032;SDS011;9649;51.042;13.804;2023-10-31T04:05:12;13.48;;;10.45;;
19032;SDS011;9649;51.042;13.804;2023-10-31T04:10:17;15.00;;;10.25;;
19032;SDS011;9649;51.042;13.804;2023-10-31T04:15:21;17.63;;;9.48;;
19032;SDS011;9649;51.042;13.804;2023-10-31T04:20:24;13.23;;;8.60;;
19032;SDS011;9649;51.042;13.804;2023-10-31T04:25:28;9.48;;;7.05;;
19032;SDS011;9649;51.042;13.804;2023-10-31T04:30:34;11.43;;;7.45;;
19032;SDS011;9649;51.042;13.804;2023-10-31T04:35:37;8.13;;;5.85;;
19032;SDS011;9649;51.042;13.804;2023-10-31T04:40:41;7.90;;;5.72;;
19032;SDS011;9649;51.042;13.804;2023-10-31T04:45:44;8.80;;;6.20;;
19032;SDS011;9649;51.042;13.804;2023-10-31T04:50:47;7.35;;;5.40;;
19032;SDS011;9649;51.042;13.804;2023-10-31T04:55:51;7.00;;;5.25;;
19032;SDS011;9649;51.042;13.804;2023-10-31T05:00:54;9.55;;;5.28;;
19032;SDS011;9649;51.042;13.804;2023-10-31T05:05:57;6.05;;;3.88;;
19032;SDS011;9649;51.042;13.804;2023-10-31T05:11:02;5.65;;;4.13;;
19032;SDS011;9649;51.042;13.804;2023-10-31T05:16:06;5.53;;;3.65;;
19032;SDS011;9649;51.042;13.804;2023-10-31T05:21:09;4.43;;;3.38;;
19032;SDS011;9649;51.042;13.804;2023-10-31T05:26:14;4.22;;;3.33;;
19032;SDS011;9649;51.042;13.804;2023-10-31T05:31:17;2.90;;;2.47;;
19032;SDS011;9649;51.042;13.804;2023-10-31T05:36:20;7.13;;;3.95;;
19032;SDS011;9649;51.042;13.804;2023-10-31T05:41:25;4.15;;;1.95;;
19032;SDS011;9649;51.042;13.804;2023-10-31T05:46:27;3.20;;;1.50;;
19032;SDS011;9649;51.042;13.804;2023-10-31T05:51:30;3.65;;;1.35;;
19032;SDS011;9649;51.042;13.804;2023-10-31T05:56:35;2.28;;;1.45;;
19032;SDS011;9649;51.042;13.804;2023-10-31T06:01:38;3.33;;;1.17;;
19032;SDS011;9649;51.042;13.804;2023-10-31T06:06:41;1.15;;;1.05;;
19032;SDS011;9649;51.042;13.804;2023-10-31T06:11:45;2.10;;;0.88;;
19032;SDS011;9649;51.042;13.804;2023-10-31T06:16:48;1.00;;;0.80;;
19032;SDS011;9649;51.042;13.804;2023-10-31T06:21:51;3.05;;;0.80;;
19032;SDS011;9649;51.042;13.804;2023-10-31T06:26:55;1.63;;;0.70;;
19032;SDS011;9649;51.042;13.804;2023-10-31T06:31:58;1.50;;;0.80;;
19032;SDS011;9649;51.042;13.804;2023-10-31T06:37:02;1.52;;;0.80;;
19032;SDS011;9649;51.042;13.804;2023-10-31T06:42:07;0.98;;;0.80;;
19032;SDS011;9649;51.042;13.804;2023-10-31T06:47:09;0.70;;;0.50;;
19032;SDS011;9649;51.042;13.804;2023-10-31T06:52:12;0.50;;;0.50;;
19032;SDS011;9649;51.042;13.804;2023-10-31T06:57:17;0.52;;;0.52;;
19032;SDS011;9649;51.042;13.804;2023-10-31T07:02:19;0.93;;;0.73;;
19032;SDS011;9649;51.042;13.804;2023-10-31T07:07:22;2.50;;;0.75;;
19032;SDS011;9649;51.042;13.804;2023-10-31T07:12:27;0.75;;;0.60;;
19032;SDS011;9649;51.042;13.804;2023-10-31T07:17:29;4.03;;;1.00;;
19032;SDS011;9649;51.042;13.804;2023-10-31T07:22:32;0.50;;;0.50;;
19032;SDS011;9649;51.042;13.804;2023-10-31T07:27:37;0.40;;;0.40;;
19032;SDS011;9649;51.042;13.804;2023-10-31T07:32:39;0.50;;;0.50;;
19032;SDS011;9649;51.042;13.804;2023-10-31T07:37:42;0.70;;;0.70;;
19032;SDS011;9649;51.042;13.804;2023-10-31T07:42:47;0.70;;;0.45;;
19032;SDS011;9649;51.042;13.804;2023-10-31T07:47:50;2.55;;;0.70;;
19032;SDS011;9649;51.042;13.804;2023-10-31T07:52:53;2.13;;;0.55;;
19032;SDS011;9649;51.042;13.804;2023-10-31T07:57:57;0.40;;;0.40;;
19032;SDS011;9649;51.042;13.804;2023-10-31T08:03:00;2.20;;;0.50;;
19032;SDS011;9649;51.042;13.804;2023-10-31T08:08:03;0.50;;;0.50;;
19032;SDS011;9649;51.042;13.804;2023-10-31T08:13:08;1.98;;;0.70;;
19032;SDS011;9649;51.042;13.804;2023-10-31T08:18:11;0.50;;;0.50;;
19032;SDS011;9649;51.042;13.804;2023-10-31T08:23:14;0.57;;;0.50;;
19032;SDS011;9649;51.042;13.804;2023-10-31T08:28:18;0.75;;;0.50;;
19032;SDS011;9649;51.042;13.804;2023-10-31T08:33:21;0.50;;;0.50;;
19032;SDS011;9649;51.042;13.804;2023-10-31T08:38:24;9.05;;;0.90;;
19032;SDS011;9649;51.042;13.804;2023-10-31T08:43:34;1.08;;;0.40;;
19032;SDS011;9649;51.042;13.804;2023-10-31T08:48:36;0.70;;;0.32;;
19032;SDS011;9649;51.042;13.804;2023-10-31T08:53:40;2.38;;;0.40;;
19032;SDS011;9649;51.042;13.804;2023-10-31T08:58:47;3.25;;;0.52;;
19032;SDS011;9649;51.042;13.804;2023-10-31T09:04:03;0.52;;;0.30;;
19032;SDS011;9649;51.042;13.804;2023-10-31T09:09:14;1.35;;;0.60;;
19032;SDS011;9649;51.042;13.804;2023-10-31T09:14:24;3.13;;;1.23;;
19032;SDS011;9649;51.042;13.804;2023-10-31T09:19:36;1.90;;;0.80;;
19032;SDS011;9649;51.042;13.804;2023-10-31T09:24:45;2.55;;;1.02;;
19032;SDS011;9649;51.042;13.804;2023-10-31T09:29:57;0.38;;;0.38;;
19032;SDS011;9649;51.042;13.804;2023-10-31T09:35:03;1.33;;;0.50;;
19032;SDS011;9649;51.042;13.804;2023-10-31T09:40:18;1.25;;;0.40;;
19032;SDS011;9649;51.042;13.804;2023-10-31T09:45:36;0.88;;;0.30;;
19032;SDS011;9649;51.042;13.804;2023-10-31T09:50:42;2.25;;;0.52;;
19032;SDS011;9649;51.042;13.804;2023-10-31T09:55:46;0.28;;;0.28;;
19032;SDS011;9649;51.042;13.804;2023-10-31T10:00:51;4.00;;;0.30;;
19032;SDS011;9649;51.042;13.804;2023-10-31T10:05:54;0.30;;;0.30;;
19032;SDS011;9649;51.042;13.804;2023-10-31T10:10:57;0.30;;;0.30;;
19032;SDS011;9649;51.042;13.804;2023-10-31T10:16:01;1.30;;;0.32;;
19032;SDS011;9649;51.042;13.804;2023-10-31T10:21:05;1.95;;;0.57;;
19032;SDS011;9649;51.042;13.804;2023-10-31T10:26:09;0.73;;;0.50;;
19032;SDS011;9649;51.042;13.804;2023-10-31T10:31:14;0.30;;;0.30;;
19032;SDS011;9649;51.042;13.804;2023-10-31T10:36:17;0.77;;;0.40;;
19032;SDS011;9649;51.042;13.804;2023-10-31T10:41:20;1.67;;;0.30;;
19032;SDS011;9649;51.042;13.804;2023-10-31T10:46:26;1.48;;;0.30;;
19032;SDS011;9649;51.042;13.804;2023-10-31T10:51:47;2.15;;;0.43;;
19032;SDS011;9649;51.042;13.804;2023-10-31T10:56:57;0.50;;;0.40;;
19032;SDS011;9649;51.042;13.804;2023-10-31T11:02:07;0.40;;;0.40;;
19032;SDS011;9649;51.042;13.804;2023-10-31T11:07:12;0.80;;;0.40;;
19032;SDS011;9649;51.042;13.804;2023-10-31T11:12:15;1.15;;;0.38;;
19032;SDS011;9649;51.042;13.804;2023-10-31T11:17:22;3.28;;;0.35;;
19032;SDS011;9649;51.042;13.804;2023-10-31T11:22:36;1.55;;;0.57;;
19032;SDS011;9649;51.042;13.804;2023-10-31T11:27:40;0.20;;;0.20;;
19032;SDS011;9649;51.042;13.804;2023-10-31T11:32:48;0.30;;;0.30;;
19032;SDS011;9649;51.042;13.804;2023-10-31T11:38:00;0.88;;;0.30;;
19032;SDS011;9649;51.042;13.804;2023-10-31T11:43:07;0.63;;;0.32;;
19032;SDS011;9649;51.042;13.804;2023-10-31T11:48:48;0.20;;;0.20;;
19032;SDS011;9649;51.042;13.804;2023-10-31T11:54:23;1.80;;;0.40;;
19032;SDS011;9649;51.042;13.804;2023-10-31T11:59:41;0.38;;;0.38;;
19032;SDS011;9649;51.042;13.804;2023-10-31T12:05:09;0.22;;;0.20;;
19032;SDS011;9649;51.042;13.804;2023-10-31T12:10:16;0.70;;;0.63;;
19032;SDS011;9649;51.042;13.804;2023-10-31T12:15:39;0.70;;;0.70;;
19032;SDS011;9649;51.042;13.804;2023-10-31T12:21:41;2.25;;;0.80;;
19032;SDS011;9649;51.042;13.804;2023-10-31T12:27:07;0.47;;;0.47;;
19032;SDS011;9649;51.042;13.804;2023-10-31T12:34:04;0.70;;;0.50;;
19032;SDS011;9649;51.042;13.804;2023-10-31T12:38:25;0.98;;;0.40;;
19032;SDS011;9649;51.042;13.804;2023-10-31T12:43:32;0.65;;;0.45;;
19032;SDS011;9649;51.042;13.804;2023-10-31T12:48:38;1.08;;;0.65;;
19032;SDS011;9649;51.042;13.804;2023-10-31T12:53:49;0.40;;;0.40;;
19032;SDS011;9649;51.042;13.804;2023-10-31T12:58:56;1.90;;;0.55;;
19032;SDS011;9649;51.042;13.804;2023-10-31T13:04:05;2.03;;;0.60;;
19032;SDS011;9649;51.042;13.804;2023-10-31T13:09:11;0.38;;;0.38;;
19032;SDS011;9649;51.042;13.804;2023-10-31T13:14:14;0.55;;;0.50;;
19032;SDS011;9649;51.042;13.804;2023-10-31T13:19:17;0.75;;;0.60;;
19032;SDS011;9649;51.042;13.804;2023-10-31T13:24:21;0.50;;;0.50;;
19032;SDS011;9649;51.042;13.804;2023-10-31T13:29:24;1.70;;;0.80;;
19032;SDS011;9649;51.042;13.804;2023-10-31T13:34:28;0.75;;;0.50;;
19032;SDS011;9649;51.042;13.804;2023-10-31T13:39:35;0.68;;;0.50;;
19032;SDS011;9649;51.042;13.804;2023-10-31T13:44:38;0.43;;;0.43;;
19032;SDS011;9649;51.042;13.804;2023-10-31T13:49:41;1.05;;;0.50;;
19032;SDS011;9649;51.042;13.804;2023-10-31T13:54:45;1.73;;;0.60;;
19032;SDS011;9649;51.042;13.804;2023-10-31T13:59:49;0.77;;;0.60;;
19032;SDS011;9649;51.042;13.804;2023-10-31T14:04:52;4.07;;;0.70;;
19032;SDS011;9649;51.042;13.804;2023-10-31T14:09:56;0.50;;;0.50;;
19032;SDS011;9649;51.042;13.804;2023-10-31T14:15:05;3.72;;;0.60;;
19032;SDS011;9649;51.042;13.804;2023-10-31T14:20:09;0.52;;;0.50;;
19032;SDS011;9649;51.042;13.804;2023-10-31T14:25:14;1.45;;;0.70;;
19032;SDS011;9649;51.042;13.804;2023-10-31T14:30:17;1.58;;;0.60;;
19032;SDS011;9649;51.042;13.804;2023-10-31T14:35:20;0.75;;;0.60;;
19032;SDS011;9649;51.042;13.804;2023-10-31T14:40:24;1.00;;;0.70;;
19032;SDS011;9649;51.042;13.804;2023-10-31T14:45:27;1.48;;;0.73;;
19032;SDS011;9649;51.042;13.804;2023-10-31T14:50:32;0.80;;;0.70;;
19032;SDS011;9649;51.042;13.804;2023-10-31T14:55:37;1.05;;;0.80;;
19032;SDS011;9649;51.042;13.804;2023-10-31T15:00:40;0.82;;;0.73;;
19032;SDS011;9649;51.042;13.804;2023-10-31T15:05:43;0.85;;;0.70;;
19032;SDS011;9649;51.042;13.804;2023-10-31T15:10:50;0.70;;;0.63;;
19032;SDS011;9649;51.042;13.804;2023-10-31T15:15:56;1.02;;;0.60;;
19032;SDS011;9649;51.042;13.804;2023-10-31T15:21:00;1.27;;;0.68;;
19032;SDS011;9649;51.042;13.804;2023-10-31T15:26:05;2.38;;;0.65;;
19032;SDS011;9649;51.042;13.804;2023-10-31T15:31:15;1.55;;;0.98;;
19032;SDS011;9649;51.042;13.804;2023-10-31T15:36:18;0.60;;;0.60;;
19032;SDS011;9649;51.042;13.804;2023-10-31T15:41:22;1.20;;;0.80;;
19032;SDS011;9649;51.042;13.804;2023-10-31T15:46:26;1.55;;;0.75;;
19032;SDS011;9649;51.042;13.804;2023-10-31T15:51:31;1.95;;;1.20;;
19032;SDS011;9649;51.042;13.804;2023-10-31T15:56:45;1.80;;;0.90;;
19032;SDS011;9649;51.042;13.804;2023-10-31T16:01:47;1.10;;;0.80;;
19032;SDS011;9649;51.042;13.804;2023-10-31T16:06:51;1.05;;;0.68;;
19032;SDS011;9649;51.042;13.804;2023-10-31T16:12:07;2.00;;;1.45;;
19032;SDS011;9649;51.042;13.804;2023-10-31T16:17:19;1.35;;;1.00;;
19032;SDS011;9649;51.042;13.804;2023-10-31T16:22:32;4.50;;;1.10;;
19032;SDS011;9649;51.042;13.804;2023-10-31T16:27:49;1.08;;;0.73;;
19032;SDS011;9649;51.042;13.804;2023-10-31T16:33:09;1.80;;;1.10;;
19032;SDS011;9649;51.042;13.804;2023-10-31T16:38:16;1.55;;;1.00;;
19032;SDS011;9649;51.042;13.804;2023-10-31T16:43:53;1.55;;;1.05;;
19032;SDS011;9649;51.042;13.804;2023-10-31T16:49:59;2.67;;;1.60;;
19032;SDS011;9649;51.042;13.804;2023-10-31T16:56:04;1.92;;;1.30;;
19032;SDS011;9649;51.042;13.804;2023-10-31T17:20:50;3.15;;;1.40;;
19032;SDS011;9649;51.042;13.804;2023-10-31T17:26:59;1.48;;;1.10;;
19032;SDS011;9649;51.042;13.804;2023-10-31T17:33:06;1.65;;;1.08;;
19032;SDS011;9649;51.042;13.804;2023-10-31T17:56:41;2.80;;;1.23;;
19032;SDS011;9649;51.042;13.804;2023-10-31T18:08:21;4.75;;;1.95;;
19032;SDS011;9649;51.042;13.804;2023-10-31T18:13:24;3.17;;;1.80;;
19032;SDS011;9649;51.042;13.804;2023-10-31T18:18:28;3.10;;;1.30;;
19032;SDS011;9649;51.042;13.804;2023-10-31T18:23:32;3.13;;;1.20;;
19032;SDS011;9649;51.042;13.804;2023-10-31T18:28:34;2.13;;;1.25;;
19032;SDS011;9649;51.042;13.804;2023-10-31T18:33:39;3.13;;;1.35;;
19032;SDS011;9649;51.042;13.804;2023-10-31T18:38:42;3.53;;;1.60;;
19032;SDS011;9649;51.042;13.804;2023-10-31T18:43:45;2.58;;;1.30;;
19032;SDS011;9649;51.042;13.804;2023-10-31T18:49:09;3.15;;;1.38;;
19032;SDS011;9649;51.042;13.804;2023-10-31T18:54:12;2.60;;;1.02;;
19032;SDS011;9649;51.042;13.804;2023-10-31T18:59:15;3.38;;;1.15;;
19032;SDS011;9649;51.042;13.804;2023-10-31T19:04:19;7.80;;;1.00;;
19032;SDS011;9649;51.042;13.804;2023-10-31T19:09:23;1.60;;;1.05;;
19032;SDS011;9649;51.042;13.804;2023-10-31T19:14:26;1.67;;;1.08;;
19032;SDS011;9649;51.042;13.804;2023-10-31T19:19:32;2.95;;;1.23;;
19032;SDS011;9649;51.042;13.804;2023-10-31T19:24:35;3.17;;;1.25;;
19032;SDS011;9649;51.042;13.804;2023-10-31T19:29:38;2.75;;;1.10;;
19032;SDS011;9649;51.042;13.804;2023-10-31T19:34:43;3.10;;;1.20;;
19032;SDS011;9649;51.042;13.804;2023-10-31T19:39:45;3.85;;;1.10;;
19032;SDS011;9649;51.042;13.804;2023-10-31T19:44:48;3.25;;;1.40;;
19032;SDS011;9649;51.042;13.804;2023-10-31T19:49:52;2.88;;;1.20;;
19032;SDS011;9649;51.042;13.804;2023-10-31T19:54:56;4.35;;;1.05;;
19032;SDS011;9649;51.042;13.804;2023-10-31T19:59:58;3.28;;;1.15;;
19032;SDS011;9649;51.042;13.804;2023-10-31T20:05:03;1.95;;;1.00;;
19032;SDS011;9649;51.042;13.804;2023-10-31T20:10:06;2.63;;;1.23;;
19032;SDS011;9649;51.042;13.804;2023-10-31T20:15:10;2.80;;;1.13;;
19032;SDS011;9649;51.042;13.804;2023-10-31T20:20:15;3.20;;;1.10;;
19032;SDS011;9649;51.042;13.804;2023-10-31T20:25:18;3.67;;;1.20;;
19032;SDS011;9649;51.042;13.804;2023-10-31T20:30:21;3.13;;;1.20;;
19032;SDS011;9649;51.042;13.804;2023-10-31T20:35:25;2.95;;;1.00;;
19032;SDS011;9649;51.042;13.804;2023-10-31T20:40:28;3.28;;;1.08;;
19032;SDS011;9649;51.042;13.804;2023-10-31T20:45:37;1.40;;;0.88;;
19032;SDS011;9649;51.042;13.804;2023-10-31T20:50:48;1.40;;;0.80;;
19032;SDS011;9649;51.042;13.804;2023-10-31T20:55:52;3.20;;;1.00;;
19032;SDS011;9649;51.042;13.804;2023-10-31T21:01:11;2.72;;;1.33;;
19032;SDS011;9649;51.042;13.804;2023-10-31T21:06:17;2.65;;;1.00;;
19032;SDS011;9649;51.042;13.804;2023-10-31T21:11:22;3.20;;;0.90;;
19032;SDS011;9649;51.042;13.804;2023-10-31T21:16:26;4.20;;;1.17;;
19032;SDS011;9649;51.042;13.804;2023-10-31T21:21:32;1.70;;;0.85;;
19032;SDS011;9649;51.042;13.804;2023-10-31T21:26:35;1.58;;;1.17;;
19032;SDS011;9649;51.042;13.804;2023-10-31T21:31:38;2.30;;;1.20;;
19032;SDS011;9649;51.042;13.804;2023-10-31T21:36:42;2.53;;;1.13;;
19032;SDS011;9649;51.042;13.804;2023-10-31T21:41:46;1.75;;;1.27;;
19032;SDS011;9649;51.042;13.804;2023-10-31T21:46:50;1.73;;;0.90;;
19032;SDS011;9649;51.042;13.804;2023-10-31T21:51:54;4.20;;;0.90;;
19032;SDS011;9649;51.042;13.804;2023-10-31T21:56:58;2.03;;;0.82;;
19032;SDS011;9649;51.042;13.804;2023-10-31T22:02:02;2.08;;;0.90;;
19032;SDS011;9649;51.042;13.804;2023-10-31T22:07:07;2.63;;;1.02;;
19032;SDS011;9649;51.042;13.804;2023-10-31T22:12:10;3.25;;;1.00;;
19032;SDS011;9649;51.042;13.804;2023-10-31T22:17:13;4.13;;;1.10;;
19032;SDS011;9649;51.042;13.804;2023-10-31T22:22:17;2.28;;;1.25;;
19032;SDS011;9649;51.042;13.804;2023-10-31T22:27:21;2.28;;;1.00;;
19032;SDS011;9649;51.042;13.804;2023-10-31T22:32:24;1.73;;;0.93;;
19032;SDS011;9649;51.042;13.804;2023-10-31T22:37:28;3.53;;;1.17;;
19032;SDS011;9649;51.042;13.804;2023-10-31T22:42:31;4.22;;;1.23;;
19032;SDS011;9649;51.042;13.804;2023-10-31T22:47:34;2.05;;;1.00;;
19032;SDS011;9649;51.042;13.804;2023-10-31T22:52:41;2.33;;;1.05;;
19032;SDS011;9649;51.042;13.804;2023-10-31T22:57:44;2.63;;;0.98;;
19032;SDS011;9649;51.042;13.804;2023-10-31T23:02:47;4.78;;;1.42;;
19032;SDS011;9649;51.042;13.804;2023-10-31T23:07:52;1.55;;;0.90;;
19032;SDS011;9649;51.042;13.804;2023-10-31T23:12:55;4.15;;;1.30;;
19032;SDS011;9649;51.042;13.804;2023-10-31T23:17:58;3.20;;;1.38;;
19032;SDS011;9649;51.042;13.804;2023-10-31T23:23:02;3.92;;;1.30;;
19032;SDS011;9649;51.042;13.804;2023-10-31T23:28:05;3.20;;;1.25;;
19032;SDS011;9649;51.042;13.804;2023-10-31T23:33:09;5.60;;;1.42;;
19032;SDS011;9649;51.042;13.804;2023-10-31T23:38:13;2.80;;;1.23;;
19032;SDS011;9649;51.042;13.804;2023-10-31T23:43:16;1.95;;;1.52;;
19032;SDS011;9649;51.042;13.804;2023-10-31T23:48:19;5.10;;;1.50;;
19032;SDS011;9649;51.042;13.804;2023-10-31T23:53:23;6.22;;;1.02;;
19032;SDS011;9649;51.042;13.804;2023-10-31T23:58:26;2.03;;;1.10;;
